createdAt,value
2023-01-21T00:02:30.312Z,9.02
2023-01-21T00:07:30.454Z,8.27
2023-01-21T00:12:29.237Z,8.02
2023-01-21T00:17:27.947Z,7.82
2023-01-21T00:22:26.679Z,7.35
2023-01-21T00:27:27.101Z,8.82
2023-01-21T00:32:25.913Z,8.63
2023-01-21T00:37:26.225Z,8.38
2023-01-21T00:42:27.992Z,7.95
2023-01-21T00:47:26.787Z,8.55
2023-01-21T00:52:25.527Z,8.43
2023-01-21T00:57:24.415Z,8.02
2023-01-21T01:02:24.806Z,8.07
2023-01-21T01:07:23.588Z,8.77
2023-01-21T01:12:22.320Z,9.55
2023-01-21T01:17:21.201Z,8.95
2023-01-21T01:22:21.396Z,9.20
2023-01-21T01:27:20.157Z,9.45
2023-01-21T01:32:18.898Z,9.32
2023-01-21T01:37:17.738Z,10.35
2023-01-21T01:42:17.892Z,8.50
2023-01-21T01:47:17.142Z,7.03
2023-01-21T01:52:17.939Z,10.18
2023-01-21T01:57:21.746Z,9.00
2023-01-21T02:02:21.351Z,9.32
2023-01-21T02:07:22.158Z,8.38
2023-01-21T02:12:22.980Z,8.43
2023-01-21T02:17:36.308Z,10.48
2023-01-21T02:22:41.834Z,9.30
2023-01-21T02:27:53.025Z,7.45
2023-01-21T02:33:25.348Z,8.32
2023-01-21T02:38:31.034Z,11.07
2023-01-21T02:43:37.375Z,8.48
2023-01-21T02:48:46.109Z,8.40
2023-01-21T02:53:44.859Z,11.23
2023-01-21T02:58:48.671Z,10.30
2023-01-21T03:04:17.973Z,9.93
2023-01-21T03:09:23.223Z,7.80
2023-01-21T03:14:41.348Z,10.23
2023-01-21T03:19:47.075Z,11.00
2023-01-21T03:24:52.226Z,11.23
2023-01-21T03:29:56.199Z,8.52
2023-01-21T03:34:58.135Z,12.15
2023-01-21T03:40:06.452Z,10.80
2023-01-21T03:45:05.852Z,10.40
2023-01-21T03:50:09.830Z,10.95
2023-01-21T03:55:10.018Z,8.57
2023-01-21T04:00:10.293Z,10.65
2023-01-21T04:05:11.053Z,9.23
2023-01-21T04:10:11.276Z,14.55
2023-01-21T04:15:11.385Z,11.48
2023-01-21T04:20:13.291Z,14.32
2023-01-21T04:25:12.063Z,12.73
2023-01-21T04:30:11.897Z,12.18
2023-01-21T04:35:12.295Z,11.55
2023-01-21T04:40:12.702Z,23.88
2023-01-21T04:45:12.125Z,22.83
2023-01-21T04:50:14.219Z,16.27
2023-01-21T04:55:13.493Z,12.82
2023-01-21T05:00:12.965Z,10.38
2023-01-21T05:05:13.136Z,12.30
2023-01-21T05:10:17.293Z,13.10
2023-01-21T05:15:16.261Z,13.70
2023-01-21T05:20:17.433Z,14.65
2023-01-21T05:25:16.919Z,36.28
2023-01-21T05:30:16.292Z,35.88
2023-01-21T05:35:19.222Z,33.17
2023-01-21T05:40:19.258Z,18.80
2023-01-21T05:45:18.379Z,13.02
2023-01-21T05:50:18.936Z,12.82
2023-01-21T05:55:17.939Z,19.20
2023-01-21T06:00:19.983Z,19.30
2023-01-21T06:05:20.521Z,22.90
2023-01-21T06:10:20.654Z,20.27
2023-01-21T06:20:34.839Z,18.83
2023-01-21T06:25:34.721Z,16.00
2023-01-21T06:30:34.006Z,18.15
2023-01-21T06:35:34.265Z,37.22
2023-01-21T06:40:33.064Z,24.48
2023-01-21T06:45:31.844Z,22.98
2023-01-21T06:50:30.679Z,25.33
2023-01-21T06:55:30.726Z,16.38
2023-01-21T07:00:29.597Z,18.58
2023-01-21T07:05:29.154Z,18.02
2023-01-21T07:10:28.430Z,15.80
2023-01-21T07:15:31.006Z,14.75
2023-01-21T07:20:29.771Z,15.00
2023-01-21T07:25:29.665Z,12.00
2023-01-21T07:30:35.355Z,10.27
2023-01-21T07:35:38.424Z,12.45
2023-01-21T07:40:37.299Z,10.40
2023-01-21T07:45:37.670Z,16.15
2023-01-21T07:50:38.594Z,13.32
2023-01-21T07:55:41.578Z,13.98
2023-01-21T08:00:43.037Z,12.90
2023-01-21T08:05:41.787Z,10.65
2023-01-21T08:10:40.707Z,11.10
2023-01-21T08:15:39.528Z,10.68
2023-01-21T08:20:39.661Z,12.73
2023-01-21T08:25:39.267Z,11.30
2023-01-21T08:30:38.074Z,9.18
2023-01-21T08:35:36.909Z,9.35
2023-01-21T08:40:37.281Z,8.85
2023-01-21T08:45:36.171Z,8.45
2023-01-21T08:50:37.108Z,11.75
2023-01-21T08:55:37.306Z,9.43
2023-01-21T09:00:36.434Z,8.88
2023-01-21T09:05:35.416Z,11.50
2023-01-21T09:10:55.924Z,15.13
2023-01-21T09:15:55.593Z,9.70
2023-01-21T09:20:54.492Z,12.93
2023-01-21T09:25:56.286Z,9.15
2023-01-21T09:30:58.457Z,11.02
2023-01-21T09:35:58.310Z,13.95
2023-01-21T09:41:05.500Z,11.60
2023-01-21T09:46:08.919Z,12.55
2023-01-21T09:51:18.554Z,16.20
2023-01-21T09:56:26.118Z,16.55
2023-01-21T10:01:32.466Z,10.32
2023-01-21T10:06:39.747Z,10.05
2023-01-21T10:11:54.765Z,12.77
2023-01-21T10:17:02.785Z,15.15
2023-01-21T10:22:05.346Z,12.35
2023-01-21T10:27:06.637Z,9.65
2023-01-21T10:32:08.510Z,13.23
2023-01-21T10:37:19.215Z,11.70
2023-01-21T10:42:35.320Z,12.95
2023-01-21T10:47:43.850Z,11.20
2023-01-21T10:52:49.876Z,11.90
2023-01-21T10:57:57.483Z,11.95
2023-01-21T11:03:00.904Z,10.13
2023-01-21T11:08:00.308Z,11.43
2023-01-21T11:13:01.090Z,15.38
2023-01-21T11:18:00.079Z,10.93
2023-01-21T11:22:59.166Z,13.75
2023-01-21T11:27:58.166Z,12.40
2023-01-21T11:33:13.155Z,10.02
2023-01-21T11:38:24.957Z,10.90
2023-01-21T11:43:41.345Z,11.97
2023-01-21T11:48:44.236Z,12.20
2023-01-21T11:53:42.979Z,15.70
2023-01-21T11:58:43.447Z,13.68
2023-01-21T12:03:49.363Z,11.43
2023-01-21T12:08:52.048Z,11.38
2023-01-21T12:13:59.144Z,12.13
2023-01-21T12:19:24.280Z,12.38
2023-01-21T12:24:37.404Z,9.48
2023-01-21T12:29:57.703Z,10.98
2023-01-21T12:35:09.838Z,13.65
2023-01-21T12:40:18.032Z,11.02
2023-01-21T12:45:24.174Z,12.25
2023-01-21T12:50:30.823Z,13.07
2023-01-21T12:55:36.666Z,13.85
2023-01-21T13:00:39.191Z,12.88
2023-01-21T13:10:46.633Z,11.90
2023-01-21T13:15:49.266Z,17.63
2023-01-21T13:25:57.795Z,16.80
2023-01-21T13:31:04.221Z,17.52
2023-01-21T13:36:18.341Z,17.55
2023-01-21T13:41:29.557Z,18.65
2023-01-21T13:46:50.282Z,15.93
2023-01-21T13:52:01.290Z,22.30
2023-01-21T13:57:24.465Z,22.60
2023-01-21T14:02:29.252Z,26.52
2023-01-21T14:07:36.323Z,19.45
2023-01-21T14:12:52.741Z,15.55
2023-01-21T14:18:19.394Z,15.98
2023-01-21T14:23:42.942Z,21.08
2023-01-21T14:28:54.625Z,15.88
2023-01-21T14:33:58.663Z,24.58
2023-01-21T14:39:08.555Z,24.17
2023-01-21T14:44:37.039Z,23.98
2023-01-21T14:49:44.040Z,23.05
2023-01-21T14:54:45.981Z,20.00
2023-01-21T14:59:46.526Z,17.33
2023-01-21T15:04:55.814Z,13.88
2023-01-21T15:09:58.054Z,16.33
2023-01-21T15:14:59.677Z,15.45
2023-01-21T15:19:59.228Z,16.63
2023-01-21T15:25:19.933Z,14.23
2023-01-21T15:30:28.707Z,9.38
2023-01-21T15:35:34.252Z,19.02
2023-01-21T15:40:40.525Z,14.45
2023-01-21T15:45:50.999Z,15.85
2023-01-21T15:50:54.989Z,21.20
2023-01-21T15:56:30.236Z,13.75
2023-01-21T16:01:35.280Z,12.30
2023-01-21T16:06:46.993Z,11.93
2023-01-21T16:12:04.103Z,17.25
2023-01-21T16:17:14.007Z,12.63
2023-01-21T16:22:16.093Z,13.05
2023-01-21T16:27:21.071Z,15.87
2023-01-21T16:32:20.668Z,13.60
2023-01-21T16:37:24.307Z,21.45
2023-01-21T16:42:27.525Z,16.25
2023-01-21T16:47:28.668Z,20.05
2023-01-21T16:52:28.151Z,22.30
2023-01-21T16:57:31.976Z,18.10
2023-01-21T17:02:33.027Z,19.58
2023-01-21T17:07:36.251Z,16.80
2023-01-21T17:12:37.868Z,18.85
2023-01-21T17:17:37.952Z,20.92
2023-01-21T17:22:41.316Z,17.25
2023-01-21T17:27:45.824Z,16.88
2023-01-21T17:32:44.589Z,21.23
2023-01-21T17:37:46.116Z,22.85
2023-01-21T17:42:47.012Z,21.60
2023-01-21T17:48:07.589Z,24.92
2023-01-21T17:53:15.296Z,31.35
2023-01-21T17:58:50.888Z,38.53
2023-01-21T18:03:49.689Z,32.22
2023-01-21T18:08:50.657Z,28.38
2023-01-21T18:13:52.628Z,24.33
2023-01-21T18:18:54.491Z,25.90
2023-01-21T18:23:53.534Z,26.15
2023-01-21T18:28:53.932Z,25.88
2023-01-21T18:33:52.899Z,28.13
2023-01-21T18:38:51.929Z,26.73
2023-01-21T18:43:50.864Z,21.50
2023-01-21T18:48:51.058Z,18.33
2023-01-21T18:53:50.135Z,13.93
2023-01-21T18:58:48.984Z,14.10
2023-01-21T19:03:48.012Z,10.75
2023-01-21T19:08:48.850Z,14.00
2023-01-21T19:13:47.663Z,13.70
2023-01-21T19:18:46.846Z,12.75
2023-01-21T19:23:45.690Z,17.13
2023-01-21T19:28:47.120Z,14.98
2023-01-21T19:33:47.234Z,17.50
2023-01-21T19:38:51.337Z,19.17
2023-01-21T19:43:52.953Z,18.85
2023-01-21T19:48:53.822Z,25.70
2023-01-21T19:53:52.747Z,34.05
2023-01-21T19:58:53.391Z,24.30
2023-01-21T20:04:00.342Z,19.83
2023-01-21T20:09:02.411Z,26.20
2023-01-21T20:14:03.105Z,27.10
2023-01-21T20:19:03.502Z,31.33
2023-01-21T20:24:02.252Z,30.48
2023-01-21T20:29:03.823Z,29.70
2023-01-21T20:34:02.617Z,23.55
2023-01-21T20:39:01.443Z,27.17
2023-01-21T20:44:03.487Z,26.27
2023-01-21T20:49:03.879Z,20.83
2023-01-21T20:54:02.650Z,16.83
2023-01-21T20:59:01.669Z,13.35
2023-01-21T21:04:00.525Z,9.50
2023-01-21T21:09:01.164Z,10.10
2023-01-21T21:14:01.880Z,8.18
2023-01-21T21:19:00.895Z,5.80
2023-01-21T21:24:01.013Z,7.30
2023-01-21T21:28:59.782Z,7.57
2023-01-21T21:33:58.512Z,4.45
2023-01-21T21:38:57.253Z,5.80
2023-01-21T21:43:57.341Z,4.70
2023-01-21T21:48:56.076Z,10.60
2023-01-21T21:53:54.824Z,5.60
2023-01-21T21:58:53.684Z,5.28
2023-01-21T22:03:54.287Z,3.10
2023-01-21T22:08:55.417Z,3.13
2023-01-21T22:13:55.150Z,1.48
2023-01-21T22:18:55.916Z,2.20
2023-01-21T22:23:54.733Z,2.65
2023-01-21T22:28:54.565Z,2.38
2023-01-21T22:33:55.322Z,1.83
2023-01-21T22:38:54.436Z,4.97
2023-01-21T22:43:54.623Z,7.13
2023-01-21T22:50:10.632Z,6.35
2023-01-21T22:55:10.064Z,3.97
2023-01-21T23:00:12.853Z,3.28
2023-01-21T23:05:13.034Z,3.70
2023-01-21T23:10:12.218Z,9.98
2023-01-21T23:15:11.396Z,6.05
2023-01-21T23:20:12.840Z,7.53
2023-01-21T23:25:13.977Z,5.35
2023-01-21T23:30:15.167Z,6.38
2023-01-21T23:35:15.575Z,7.93
2023-01-21T23:40:14.909Z,6.03
2023-01-21T23:45:13.780Z,5.18
2023-01-21T23:50:15.895Z,8.93
2023-01-21T23:55:15.325Z,11.17
